Aviation Digital Data Service (ADDS)

Output produced by METARs form (2355 UTC 30 September 2014)
found at http://www.aviationweather.gov/adds/metars/
 
KUNV 302253Z VRB04KT 5SM TSRA SCT030 OVC050 15/14 A2993 RMK LTG DSNT N AND E
KUNV 302153Z 30007KT 5SM TS-RA OVC075 17/14 A2990 RMK LIGHTNING IN THE VICINITY AND DISTANT ALL QUADRANTS
KUNV 302138Z 30007KT 5SM TSRA OVC090 16/14 A2990 RMK LIGHTNING AT AIRPORT AND DISTANT SOUTHWEST THROUGH NORTH
KUNV 302135Z COR 30007KT 5SM TSRA OVC090 16/14 A2990 RMK LIGHTNING AT AIRPORT AND DISTANT SOUTHWEST THROUGH NORTH
KUNV 302053Z 33003KT 7SM VCTS SCT090 17/14 A2987
KUNV 301953Z 05011G18KT 7SM VCTS SCT041 BKN055 BKN080 18/14 A2988 RMK TSE49
KUNV 301908Z COR 10004KT 7SM TS SCT039 SCT060 22/15 A2987 RMK TSB08
KUNV 301853Z VRB05KT 10SM VCTS SCT070 23/15 A2986
KUNV 301753Z 00000KT 10SM SCT033 SCT050 BKN080 22/16 A2989
KUNV 301653Z 00000KT 10SM SCT050 22/16 A2992
KUNV 301553Z 00000KT 7SM SCT040 20/15 A2992
KUNV 301453Z 00000KT 5SM BR SCT047 17/15 A2993
KUNV 301430Z 00000KT 3SM BR SCT047 16/14 A2994
KUNV 301353Z 00000KT 3/4SM BR OVC001 14/14 A2994
KUNV 301330Z 00000KT 1/2SM FG OVC001 14/14 A2994
KUNV 301253Z 00000KT 1/4SM FG OVC001 13/13 A2994
KUNV 301153Z 00000KT 1/8SM FG OVC001 12/12 A2993
KUNV 301130Z 00000KT 1/8SM FG OVC001 12/12 A2993
KUNV 301125Z COR 00000KT 1/4SM FG OVC001 12/12 A2993
KUNV 301053Z 00000KT 2 SM BR BKN046 OVC055 12/12 A2992
KUNV 300953Z 00000KT 4SM BR SCT090 13/12 A2991
KUNV 300935Z AUTO 00000KT 1 1/4SM BR VV007 12/12 A2991 RMK AO2 VIS 1/2V3 T01240122
KUNV 300915Z AUTO 00000KT 2 1/2SM BR SCT060 SCT070 SCT080 13/12 A2991 RMK AO2 T01270123
KUNV 300855Z AUTO 00000KT 5SM BR SCT060 BKN070 BKN080 13/12 A2991 RMK AO2 T01310124
KUNV 300835Z AUTO 00000KT 10SM BKN060 BKN070 14/13 A2991 RMK AO2 T01390129
KUNV 300815Z AUTO 00000KT 10SM BKN060 OVC070 14/13 A2991 RMK AO2 T01410131
KUNV 300755Z AUTO 00000KT 10SM SCT060 BKN070 14/13 A2991 RMK AO2 T01410130
KUNV 300735Z AUTO 00000KT 10SM SCT070 14/13 A2991 RMK AO2 T01430130
KUNV 300715Z AUTO 00000KT 10SM SCT060 14/13 A2991 RMK AO2 T01390130
KUNV 300655Z AUTO 00000KT 10SM BKN065 14/13 A2992 RMK AO2 T01420134
KUNV 300635Z AUTO 00000KT 10SM OVC055 15/14 A2992 RMK AO2 T01500139
KUNV 300615Z AUTO 22004KT 10SM BKN055 15/13 A2992 RMK AO2 T01470134
KUNV 300555Z AUTO 26004KT 10SM SCT055 SCT070 SCT100 16/14 A2992 RMK AO2 T01550136 10189 20140
KUNV 300535Z AUTO 00000KT 10SM SCT065 SCT080 15/14 A2992 RMK AO2 T01540136
KUNV 300515Z AUTO 23003KT 10SM SCT065 SCT080 15/13 A2992 RMK AO2 T01470133
KUNV 300455Z AUTO 23003KT 10SM BKN065 16/14 A2992 RMK AO2 T01550136
KUNV 300435Z AUTO 00000KT 10SM CLR 15/14 A2993 RMK AO2 T01510137
KUNV 300415Z AUTO 00000KT 10SM CLR 15/14 A2993 RMK AO2 T01490136
KUNV 300355Z AUTO 00000KT 7SM CLR 14/14 A2994 RMK AO2 T01410136 402410132
KUNV 300335Z AUTO 00000KT 10SM CLR 15/14 A2993 RMK AO2 T01500135
KUNV 300315Z AUTO 24005KT 10SM CLR 18/14 A2994 RMK AO2 T01750140
KUNV 300255Z AUTO 25006KT 10SM CLR 17/14 A2994 RMK AO2 T01670141
KUNV 300235Z AUTO 28003KT 10SM CLR 17/14 A2994 RMK AO2 T01700139
KUNV 300215Z AUTO 23004KT 10SM CLR 17/14 A2994 RMK AO2 T01740141
KUNV 300155Z AUTO 25004KT 10SM CLR 17/14 A2994 RMK AO2 T01720142
KUNV 300053Z 00000KT 10SM SCT070 18/14 A2994
KUNV 292353Z 00000KT 10SM SKC 19/13 A2993
KUNV 292253Z 00000KT 10SM FEW038 20/14 A2994
KUNV 292153Z 00000KT 10SM FEW040 23/13 A2994
KUNV 292053Z 27005KT 10SM SCT040 23/12 A2994
KUNV 291953Z 21005KT 10SM SCT041 24/13 A2995
KUNV 291853Z 25004KT 10SM SCT041 23/14 A2996
KUNV 291753Z 24004KT 10SM SCT035 23/15 A2998
KUNV 291653Z 20005KT 10SM SCT030 22/16 A3000
KUNV 291553Z 00000KT 10SM SKC 21/16 A3001
KUNV 291453Z 00000KT 10SM OVC120 19/16 A3003
KUNV 291353Z 00000KT 10SM BKN120 17/15 A3003
KUNV 291253Z 00000KT 10SM BKN120 15/14 A3004